Terminal Aerodrome Forecast
Issued by NWS

Home | Current Version | Previous Version | Text Only | Print | Product List | Glossary On
Versions: 1 2 3 4 5 6 7 8 9 10 11 12 13 14 15 16
243
FTUS41 KPBZ 251725
TAFBVI
TAF
KBVI 251725Z 2518/2618 26016G25KT P6SM VCSH SCT025 BKN050
     FM260700 28011KT P6SM BKN025
     FM261500 26009KT P6SM SCT050=

USA.gov is the U.S. government's official web portal to all federal, state and local government web resources and services.